Time;durP1;ratioP1;P1;durP2;ratioP2;P2;SDS_P1;SDS_P2;PMS_P1;PMS_P2;Temp;Humidity;BMP_temperature;BMP_pressure;BME280_temperature;BME280_humidity;BME280_pressure;Samples;Min_cycle;Max_cycle;Signal;HPM_P1;HPM_P2
2022/03/18 00:00:51;;;;;;;9.23;4.40;;;1.60;99.90;;;;;;4993121;28;20065;-65
2022/03/18 00:03:17;;;;;;;8.55;4.50;;;1.60;99.90;;;;;;5008864;28;20054;-63
2022/03/18 00:05:42;;;;;;;11.38;4.70;;;1.60;99.90;;;;;;4993764;28;20197;-64
2022/03/18 00:08:10;;;;;;;10.32;4.47;;;1.60;99.90;;;;;;4994816;28;20054;-64
2022/03/18 00:10:35;;;;;;;12.25;4.75;;;1.60;99.90;;;;;;4993600;28;20125;-63
2022/03/18 00:13:01;;;;;;;11.00;4.75;;;1.50;99.90;;;;;;4991562;28;20169;-63
2022/03/18 00:15:27;;;;;;;8.23;4.93;;;1.50;99.90;;;;;;4974567;28;20051;-64
2022/03/18 00:17:53;;;;;;;11.88;5.00;;;1.50;99.90;;;;;;4992902;28;20061;-65
2022/03/18 00:20:20;;;;;;;8.90;5.15;;;1.50;99.90;;;;;;5006432;28;20133;-63
2022/03/18 00:22:47;;;;;;;8.13;4.53;;;1.50;99.90;;;;;;4992284;28;20072;-64
2022/03/18 00:25:14;;;;;;;10.70;5.53;;;1.50;99.90;;;;;;4994336;28;20065;-64
2022/03/18 00:27:44;;;;;;;8.32;4.57;;;1.50;99.90;;;;;;4989428;28;20531;-62
2022/03/18 00:30:11;;;;;;;7.55;4.47;;;1.50;99.90;;;;;;4991729;28;20052;-64
2022/03/18 00:32:41;;;;;;;11.10;4.32;;;1.50;99.90;;;;;;4991580;28;20094;-63
2022/03/18 00:35:08;;;;;;;7.60;4.97;;;1.40;99.90;;;;;;4992877;28;20050;-65
2022/03/18 00:37:42;;;;;;;9.30;4.90;;;1.40;99.90;;;;;;4992488;28;20062;-63
2022/03/18 00:40:09;;;;;;;10.00;5.25;;;1.40;99.90;;;;;;4993259;28;20475;-63
2022/03/18 00:42:35;;;;;;;8.95;4.80;;;1.40;99.90;;;;;;4992115;28;20517;-64
2022/03/18 00:45:02;;;;;;;11.05;4.70;;;1.40;99.90;;;;;;4993101;28;20138;-65
2022/03/18 00:52:56;;;;;;;12.55;6.25;;;1.30;99.90;;;;;;4993315;28;20074;-65
2022/03/18 00:55:22;;;;;;;13.27;5.60;;;1.30;99.90;;;;;;4992568;28;20522;-64
2022/03/18 00:57:47;;;;;;;12.40;5.45;;;1.30;99.90;;;;;;4990940;28;20086;-64
2022/03/18 01:00:13;;;;;;;12.45;5.00;;;1.30;99.90;;;;;;4992605;28;20505;-63
2022/03/18 01:02:39;;;;;;;11.35;5.03;;;1.30;99.90;;;;;;4993399;28;20042;-63
2022/03/18 01:05:05;;;;;;;12.90;4.32;;;1.30;99.90;;;;;;4992544;28;20050;-65
2022/03/18 01:07:30;;;;;;;10.07;4.95;;;1.30;99.90;;;;;;4991667;28;20062;-63
2022/03/18 01:09:57;;;;;;;8.95;5.38;;;1.20;99.90;;;;;;4988544;28;20133;-62
2022/03/18 01:12:23;;;;;;;13.25;5.20;;;1.20;99.90;;;;;;4992785;28;20066;-64
2022/03/18 01:14:49;;;;;;;14.43;6.78;;;1.20;99.90;;;;;;4993272;28;20042;-63
2022/03/18 01:17:15;;;;;;;11.98;5.95;;;1.20;99.90;;;;;;4993062;28;20128;-65
2022/03/18 01:19:41;;;;;;;13.18;5.35;;;1.20;99.90;;;;;;4993247;28;20060;-63
2022/03/18 01:22:09;;;;;;;11.38;5.50;;;1.20;99.90;;;;;;4990468;28;20121;-65
2022/03/18 01:24:35;;;;;;;9.15;4.70;;;1.20;99.90;;;;;;4978425;28;20042;-63
2022/03/18 01:27:02;;;;;;;8.32;4.30;;;1.20;99.90;;;;;;4991532;28;20105;-64
2022/03/18 01:29:28;;;;;;;10.82;5.15;;;1.10;99.90;;;;;;4991546;28;20061;-64
2022/03/18 01:31:53;;;;;;;12.00;5.00;;;1.10;99.90;;;;;;4991639;28;20054;-64
2022/03/18 01:34:19;;;;;;;13.85;5.18;;;1.10;99.90;;;;;;4993405;28;20078;-64
2022/03/18 01:36:44;;;;;;;8.70;4.78;;;1.10;99.90;;;;;;4990474;28;20463;-63
2022/03/18 01:39:12;;;;;;;8.80;4.47;;;1.10;99.90;;;;;;4991514;28;20490;-63
2022/03/18 01:41:38;;;;;;;9.68;4.70;;;1.10;99.90;;;;;;4983936;28;20389;-65
2022/03/18 01:44:04;;;;;;;8.63;4.70;;;1.10;99.90;;;;;;4984312;28;20138;-64
2022/03/18 01:46:30;;;;;;;12.75;4.82;;;1.00;99.90;;;;;;4980681;28;20126;-64
2022/03/18 01:48:55;;;;;;;10.88;5.20;;;1.00;99.90;;;;;;4991713;28;20128;-63
2022/03/18 01:51:22;;;;;;;14.98;5.40;;;1.00;99.90;;;;;;4984753;28;20046;-64
2022/03/18 01:54:44;;;;;;;7.88;5.18;;;1.00;99.90;;;;;;4989213;28;20054;-64
2022/03/18 01:56:34;;;;;;;9.38;5.60;;;1.00;99.90;;;;;;4971748;28;20055;-63
2022/03/18 01:58:59;;;;;;;8.50;5.30;;;1.00;99.90;;;;;;4985868;28;20065;-63
2022/03/18 02:01:25;;;;;;;13.00;5.25;;;1.00;99.90;;;;;;4991032;28;20415;-65
2022/03/18 02:03:50;;;;;;;12.82;5.82;;;1.00;99.90;;;;;;4991594;28;20120;-63
2022/03/18 02:06:16;;;;;;;9.77;6.05;;;1.00;99.90;;;;;;4988686;28;20058;-63
2022/03/18 02:08:45;;;;;;;7.47;4.97;;;1.00;99.90;;;;;;4991775;28;20078;-65
2022/03/18 02:11:10;;;;;;;12.85;5.55;;;1.00;99.90;;;;;;4991252;28;20475;-64
2022/03/18 02:13:36;;;;;;;10.18;5.30;;;1.00;99.90;;;;;;4990101;28;20064;-65
2022/03/18 02:16:03;;;;;;;9.38;5.60;;;0.90;99.90;;;;;;4991757;28;20054;-64
2022/03/18 02:18:28;;;;;;;12.15;5.53;;;1.00;99.90;;;;;;4992959;28;20093;-63
2022/03/18 02:20:54;;;;;;;8.32;4.88;;;0.90;99.90;;;;;;4990202;28;20050;-65
2022/03/18 02:23:19;;;;;;;10.77;4.80;;;0.90;99.90;;;;;;4975325;28;20050;-64
2022/03/18 02:25:46;;;;;;;10.85;5.20;;;0.90;99.90;;;;;;4991248;28;20078;-63
2022/03/18 02:28:12;;;;;;;8.45;5.30;;;0.90;99.90;;;;;;4989538;28;20057;-64
2022/03/18 02:30:37;;;;;;;8.40;5.10;;;0.90;99.90;;;;;;4990726;28;20058;-63
2022/03/18 02:33:03;;;;;;;9.88;5.07;;;0.90;99.90;;;;;;4991269;28;20057;-64
2022/03/18 02:35:29;;;;;;;12.68;5.00;;;0.90;99.90;;;;;;5010420;28;20057;-65
2022/03/18 02:38:00;;;;;;;13.18;5.30;;;0.90;99.90;;;;;;4994132;28;20431;-63
2022/03/18 02:40:26;;;;;;;11.88;5.22;;;0.80;99.90;;;;;;4993932;28;20058;-64
2022/03/18 02:42:52;;;;;;;7.93;4.93;;;0.80;99.90;;;;;;4994328;28;20137;-64
2022/03/18 02:45:18;;;;;;;9.45;5.43;;;0.80;99.90;;;;;;4996252;28;20121;-63
2022/03/18 02:47:44;;;;;;;9.85;5.57;;;0.90;99.90;;;;;;4995885;28;20505;-65
2022/03/18 02:50:10;;;;;;;14.48;5.80;;;0.80;99.90;;;;;;4980314;28;20054;-64
2022/03/18 02:52:36;;;;;;;12.80;5.50;;;0.80;99.90;;;;;;4999997;28;20062;-64
2022/03/18 02:55:01;;;;;;;10.45;5.03;;;0.80;99.90;;;;;;4976882;28;20451;-64
2022/03/18 02:57:27;;;;;;;11.82;5.35;;;0.80;99.90;;;;;;4992928;28;20047;-64
2022/03/18 02:59:53;;;;;;;9.82;5.25;;;0.80;99.90;;;;;;4995325;28;20050;-63
2022/03/18 03:02:18;;;;;;;11.73;5.20;;;0.80;99.90;;;;;;4994251;28;20101;-63
2022/03/18 03:10:12;;;;;;;10.57;5.88;;;0.80;99.90;;;;;;4993165;28;20522;-65
2022/03/18 03:12:41;;;;;;;9.27;5.18;;;0.80;99.90;;;;;;4992505;28;20046;-65
2022/03/18 03:15:08;;;;;;;11.18;5.85;;;0.80;99.90;;;;;;4994181;28;20078;-63
2022/03/18 03:17:33;;;;;;;7.40;5.60;;;0.80;99.90;;;;;;4994432;28;20498;-63
2022/03/18 03:19:59;;;;;;;14.25;5.95;;;0.80;99.90;;;;;;4994734;28;20054;-63
2022/03/18 03:22:24;;;;;;;10.00;6.53;;;0.70;99.90;;;;;;4993145;28;20046;-64
2022/03/18 03:24:50;;;;;;;10.85;5.88;;;0.80;99.90;;;;;;4993604;28;20042;-63
2022/03/18 03:27:16;;;;;;;11.35;6.15;;;0.80;99.90;;;;;;5007009;28;20066;-64
2022/03/18 03:29:41;;;;;;;15.75;7.80;;;0.80;99.90;;;;;;4991990;28;20093;-64
2022/03/18 03:32:07;;;;;;;12.77;7.40;;;0.80;99.90;;;;;;4992872;28;20046;-63
2022/03/18 03:34:32;;;;;;;13.75;8.25;;;0.80;99.90;;;;;;4994261;28;20058;-65
2022/03/18 03:36:58;;;;;;;15.63;7.22;;;0.80;99.90;;;;;;4994193;28;20489;-64
2022/03/18 03:39:24;;;;;;;9.98;6.55;;;0.80;99.90;;;;;;5007176;28;20063;-63
2022/03/18 03:41:49;;;;;;;8.77;6.35;;;0.80;99.90;;;;;;4986731;28;20050;-64
2022/03/18 03:44:16;;;;;;;10.43;6.55;;;0.80;99.90;;;;;;4992084;28;20049;-63
2022/03/18 03:46:42;;;;;;;11.30;5.90;;;0.80;99.90;;;;;;4985094;28;20498;-64
2022/03/18 03:49:07;;;;;;;10.82;5.90;;;0.80;99.90;;;;;;4978261;28;20065;-65
2022/03/18 03:51:34;;;;;;;11.70;6.25;;;0.70;99.90;;;;;;4993180;28;20133;-64
2022/03/18 03:53:59;;;;;;;10.90;5.97;;;0.70;99.90;;;;;;4993583;28;20108;-63
2022/03/18 03:56:25;;;;;;;10.13;5.65;;;0.70;99.90;;;;;;4990771;28;20046;-63
2022/03/18 03:58:50;;;;;;;12.73;6.95;;;0.70;99.90;;;;;;4993551;28;20077;-64
2022/03/18 04:01:16;;;;;;;12.95;6.65;;;0.70;99.90;;;;;;4993842;28;20116;-66
2022/03/18 04:03:41;;;;;;;9.75;5.85;;;0.70;99.90;;;;;;4993558;28;20156;-64
2022/03/18 04:06:07;;;;;;;9.48;6.28;;;0.70;99.90;;;;;;4987789;28;20046;-63
2022/03/18 04:08:32;;;;;;;9.70;5.97;;;0.70;99.90;;;;;;4994965;28;20433;-64
2022/03/18 04:10:58;;;;;;;10.93;6.30;;;0.70;99.90;;;;;;4993164;28;20500;-65
2022/03/18 04:13:23;;;;;;;11.70;5.53;;;0.70;99.90;;;;;;4983606;28;20054;-64
2022/03/18 04:15:49;;;;;;;10.02;5.70;;;0.70;99.90;;;;;;4974318;28;20066;-64
2022/03/18 04:18:14;;;;;;;10.35;5.88;;;0.60;99.90;;;;;;4990622;28;20508;-63
2022/03/18 04:20:40;;;;;;;10.02;5.70;;;0.60;99.90;;;;;;4993380;28;20506;-64
2022/03/18 04:23:06;;;;;;;14.93;5.85;;;0.60;99.90;;;;;;4986709;28;20495;-64
2022/03/18 04:25:31;;;;;;;11.68;6.43;;;0.60;99.90;;;;;;4993069;28;20054;-65
2022/03/18 04:28:00;;;;;;;13.20;6.35;;;0.60;99.90;;;;;;4991869;28;20456;-65
2022/03/18 04:30:26;;;;;;;10.05;6.30;;;0.60;99.90;;;;;;4994018;28;20446;-64
2022/03/18 04:32:51;;;;;;;14.23;6.13;;;0.60;99.90;;;;;;4976618;28;20050;-65
2022/03/18 04:35:17;;;;;;;11.10;6.35;;;0.60;99.90;;;;;;4992574;28;20398;-64
2022/03/18 04:37:43;;;;;;;8.43;5.90;;;0.60;99.90;;;;;;4991617;28;20050;-66
2022/03/18 04:40:11;;;;;;;10.57;6.63;;;0.60;99.90;;;;;;4992559;28;20058;-64
2022/03/18 04:42:37;;;;;;;12.15;6.35;;;0.60;99.90;;;;;;4992523;28;20394;-66
2022/03/18 04:45:03;;;;;;;10.63;6.13;;;0.50;99.90;;;;;;4993534;28;20054;-64
2022/03/18 04:47:30;;;;;;;15.00;6.93;;;0.60;99.90;;;;;;4992341;28;20058;-64
2022/03/18 04:49:56;;;;;;;12.80;6.45;;;0.50;99.90;;;;;;4994587;28;20345;-63
2022/03/18 04:52:22;;;;;;;15.38;7.05;;;0.50;99.90;;;;;;4978773;28;20091;-64
2022/03/18 04:54:47;;;;;;;9.35;6.55;;;0.50;99.90;;;;;;4978610;28;20427;-64
2022/03/18 04:57:16;;;;;;;11.50;6.90;;;0.50;99.90;;;;;;4991711;28;20442;-63
2022/03/18 04:59:42;;;;;;;11.85;6.93;;;0.50;99.90;;;;;;4993612;28;20109;-64
2022/03/18 05:02:10;;;;;;;11.75;7.13;;;0.50;99.90;;;;;;4992459;28;20431;-66
2022/03/18 05:04:36;;;;;;;14.43;7.15;;;0.60;99.90;;;;;;4992025;28;20054;-65
2022/03/18 05:07:03;;;;;;;12.02;6.50;;;0.50;99.90;;;;;;4988854;28;20046;-64
2022/03/18 05:09:29;;;;;;;11.43;6.95;;;0.50;99.90;;;;;;4992997;28;20132;-63
2022/03/18 05:11:54;;;;;;;12.63;7.13;;;0.50;99.90;;;;;;4991570;28;20129;-64
2022/03/18 05:14:20;;;;;;;13.02;6.50;;;0.50;99.90;;;;;;4993656;28;20050;-63
2022/03/18 05:16:46;;;;;;;11.65;6.38;;;0.50;99.90;;;;;;4990831;28;20050;-65
2022/03/18 05:19:12;;;;;;;13.43;6.85;;;0.50;99.90;;;;;;4992386;28;20062;-63
2022/03/18 05:21:37;;;;;;;12.70;6.60;;;0.50;99.90;;;;;;4993472;28;20050;-64
2022/03/18 05:24:04;;;;;;;8.68;6.50;;;0.50;99.90;;;;;;4991721;28;20058;-65
2022/03/18 05:26:29;;;;;;;12.73;7.07;;;0.40;99.90;;;;;;4991613;28;20522;-64
2022/03/18 05:28:55;;;;;;;12.30;6.82;;;0.40;99.90;;;;;;4992107;28;20046;-64
2022/03/18 05:31:21;;;;;;;16.67;7.72;;;0.40;99.90;;;;;;4990707;28;20038;-64
2022/03/18 05:33:47;;;;;;;14.65;7.05;;;0.40;99.90;;;;;;4982465;28;20133;-63
2022/03/18 05:36:12;;;;;;;15.82;6.97;;;0.40;99.90;;;;;;4991715;28;20498;-64
2022/03/18 05:38:38;;;;;;;11.10;7.75;;;0.40;99.90;;;;;;4991240;28;20097;-63
2022/03/18 05:41:03;;;;;;;13.60;7.90;;;0.40;99.90;;;;;;4991985;28;20062;-64
2022/03/18 05:43:29;;;;;;;11.23;6.55;;;0.40;99.90;;;;;;4990418;28;20399;-63
2022/03/18 05:45:54;;;;;;;14.50;6.95;;;0.40;99.90;;;;;;4975622;28;20062;-65
2022/03/18 05:48:20;;;;;;;10.40;6.63;;;0.40;99.90;;;;;;4990737;28;20054;-65
2022/03/18 05:50:46;;;;;;;13.35;7.15;;;0.40;99.90;;;;;;4991831;28;20140;-64
2022/03/18 05:53:12;;;;;;;17.45;7.63;;;0.40;99.90;;;;;;4991681;28;20513;-65
2022/03/18 05:58:22;;;;;;;10.00;6.50;;;0.40;99.90;;;;;;4972344;28;20129;-65
2022/03/18 06:00:48;;;;;;;13.07;6.88;;;0.40;99.90;;;;;;5005631;28;20160;-64
2022/03/18 06:03:13;;;;;;;13.77;7.78;;;0.40;99.90;;;;;;4991244;28;20054;-62
2022/03/18 06:05:42;;;;;;;9.02;7.00;;;0.40;99.90;;;;;;4991362;28;20054;-63
2022/03/18 06:13:39;;;;;;;12.52;7.82;;;0.50;99.90;;;;;;4994929;28;20105;-64
2022/03/18 06:16:05;;;;;;;14.43;8.13;;;0.50;99.90;;;;;;4995164;28;20085;-63
2022/03/18 06:18:31;;;;;;;11.23;7.25;;;0.50;99.90;;;;;;4994111;28;20157;-64
2022/03/18 06:20:56;;;;;;;12.65;7.78;;;0.50;99.90;;;;;;4994036;28;20050;-66
2022/03/18 06:23:22;;;;;;;14.93;8.07;;;0.60;99.90;;;;;;4984402;28;20078;-64
2022/03/18 06:25:48;;;;;;;14.90;8.65;;;0.60;99.90;;;;;;5005495;28;20502;-65
2022/03/18 06:28:14;;;;;;;13.30;7.68;;;0.70;99.90;;;;;;4989030;28;20058;-65
2022/03/18 06:30:42;;;;;;;15.68;9.05;;;0.70;99.90;;;;;;5002159;28;20117;-64
2022/03/18 06:33:08;;;;;;;12.70;8.68;;;0.70;99.90;;;;;;4986546;28;20125;-64
2022/03/18 06:35:33;;;;;;;13.07;8.10;;;0.80;99.90;;;;;;5003072;28;20053;-65
2022/03/18 06:37:59;;;;;;;16.98;8.63;;;0.80;99.90;;;;;;5007079;28;20050;-66
2022/03/18 06:40:25;;;;;;;13.35;8.73;;;0.90;99.90;;;;;;4969648;28;20093;-64
2022/03/18 06:42:51;;;;;;;13.15;8.15;;;1.00;99.90;;;;;;4990146;28;20410;-64
2022/03/18 06:45:16;;;;;;;16.17;9.18;;;1.10;99.90;;;;;;4993193;28;20552;-64
2022/03/18 06:47:42;;;;;;;19.50;9.30;;;1.20;99.90;;;;;;4985261;28;20109;-65
2022/03/18 06:50:09;;;;;;;11.57;8.43;;;1.30;99.90;;;;;;4995215;28;20469;-65
2022/03/18 06:52:35;;;;;;;17.13;9.43;;;1.50;99.90;;;;;;4994608;28;20513;-64
2022/03/18 06:55:01;;;;;;;13.32;8.73;;;1.50;99.90;;;;;;4974173;28;20051;-64
2022/03/18 06:57:27;;;;;;;15.00;7.85;;;1.60;99.90;;;;;;4982621;28;20185;-64
2022/03/18 06:59:52;;;;;;;13.02;8.48;;;1.70;99.90;;;;;;4996052;28;20058;-66
2022/03/18 07:02:18;;;;;;;18.00;10.07;;;1.80;99.90;;;;;;4993340;28;20522;-64
2022/03/18 07:04:43;;;;;;;20.58;10.82;;;1.90;99.90;;;;;;4978965;28;20471;-65
2022/03/18 07:07:09;;;;;;;17.25;10.30;;;2.00;99.90;;;;;;4994733;28;20460;-65
2022/03/18 07:09:36;;;;;;;25.00;13.70;;;2.20;99.90;;;;;;4995683;28;20050;-65
2022/03/18 07:12:02;;;;;;;16.77;11.98;;;2.30;99.90;;;;;;4993864;28;20117;-64
2022/03/18 07:14:28;;;;;;;15.60;11.00;;;2.30;99.90;;;;;;4984846;28;20202;-65
2022/03/18 07:19:38;;;;;;;19.52;13.75;;;2.60;99.90;;;;;;5005949;28;20491;-66
2022/03/18 07:22:05;;;;;;;21.27;14.32;;;2.70;99.90;;;;;;4980902;28;20038;-64
2022/03/18 07:24:30;;;;;;;23.98;14.70;;;2.90;99.90;;;;;;4980001;28;20066;-64
2022/03/18 07:26:56;;;;;;;24.75;15.65;;;3.10;99.90;;;;;;4985173;28;20069;-66
2022/03/18 07:29:21;;;;;;;24.20;16.48;;;3.20;99.90;;;;;;4992021;28;20050;-65
2022/03/18 07:31:47;;;;;;;27.20;17.30;;;3.30;99.90;;;;;;4993183;28;20056;-64
2022/03/18 07:34:12;;;;;;;29.13;18.25;;;3.50;99.90;;;;;;4992835;28;20054;-65
2022/03/18 07:36:38;;;;;;;23.73;15.48;;;3.70;99.90;;;;;;4993578;28;20061;-66
2022/03/18 07:39:04;;;;;;;22.15;16.13;;;3.80;99.90;;;;;;4994440;28;20521;-65
2022/03/18 07:41:30;;;;;;;25.52;16.45;;;3.90;99.90;;;;;;4982893;28;20130;-65
2022/03/18 07:43:56;;;;;;;26.02;16.55;;;4.10;99.90;;;;;;4993853;28;20054;-66
2022/03/18 07:46:21;;;;;;;23.40;17.10;;;4.20;99.90;;;;;;4991918;28;20478;-66
2022/03/18 07:48:47;;;;;;;26.13;17.40;;;4.40;99.90;;;;;;4992026;28;20100;-63
2022/03/18 07:51:12;;;;;;;24.52;16.83;;;4.50;99.90;;;;;;4994094;28;20141;-64
2022/03/18 07:53:38;;;;;;;24.15;16.20;;;4.70;99.90;;;;;;4976466;28;20486;-65
2022/03/18 07:56:04;;;;;;;25.40;15.60;;;4.80;99.90;;;;;;4986708;28;20442;-66
2022/03/18 07:58:30;;;;;;;21.85;16.58;;;4.90;99.90;;;;;;4989553;28;20149;-67
2022/03/18 08:00:56;;;;;;;30.80;17.08;;;5.10;99.90;;;;;;4984397;28;20063;-65
2022/03/18 08:03:22;;;;;;;20.50;16.83;;;5.20;99.90;;;;;;4982437;28;20117;-65
2022/03/18 08:05:47;;;;;;;22.95;15.50;;;5.40;99.90;;;;;;4983848;28;20066;-65
2022/03/18 08:08:13;;;;;;;26.27;16.42;;;5.50;99.90;;;;;;4976123;28;20054;-66
2022/03/18 08:10:39;;;;;;;22.83;14.63;;;5.70;99.90;;;;;;4981987;28;20133;-64
2022/03/18 08:13:05;;;;;;;22.30;15.05;;;5.80;99.90;;;;;;4974106;28;20046;-64
2022/03/18 08:15:31;;;;;;;22.23;14.60;;;6.10;99.90;;;;;;4979778;28;20104;-65
2022/03/18 08:17:57;;;;;;;21.33;16.02;;;6.30;99.90;;;;;;4982468;28;20046;-66
2022/03/18 08:20:24;;;;;;;25.02;15.43;;;6.50;99.90;;;;;;4983942;28;20058;-65
2022/03/18 08:22:50;;;;;;;19.95;14.65;;;6.70;99.90;;;;;;4973216;28;20076;-66
2022/03/18 08:25:16;;;;;;;23.33;14.38;;;6.90;99.90;;;;;;4991753;28;20132;-66
2022/03/18 08:27:42;;;;;;;19.77;13.63;;;7.00;99.90;;;;;;4981230;28;20051;-64
2022/03/18 08:30:11;;;;;;;21.15;13.93;;;7.20;99.90;;;;;;4977386;28;20052;-66
2022/03/18 08:32:37;;;;;;;22.02;14.25;;;7.30;99.90;;;;;;4982622;28;20065;-65
2022/03/18 08:35:03;;;;;;;25.40;14.63;;;7.30;99.90;;;;;;4985299;28;20062;-65
2022/03/18 08:40:13;;;;;;;17.27;13.48;;;7.50;99.90;;;;;;4985692;28;20054;-64
2022/03/18 08:42:40;;;;;;;21.48;12.80;;;7.70;99.90;;;;;;4985059;28;20478;-62
2022/03/18 08:45:06;;;;;;;17.10;13.75;;;7.80;99.90;;;;;;4993770;28;20051;-65
2022/03/18 08:47:32;;;;;;;17.08;12.98;;;8.00;99.90;;;;;;4993102;28;20051;-63
2022/03/18 08:49:58;;;;;;;18.65;13.00;;;8.10;99.90;;;;;;4991654;28;22024;-63
2022/03/18 08:52:24;;;;;;;23.38;13.73;;;8.20;99.90;;;;;;4992984;28;20082;-64
2022/03/18 08:54:49;;;;;;;20.77;12.82;;;8.30;99.90;;;;;;4992323;28;20058;-64
2022/03/18 08:57:15;;;;;;;20.73;13.48;;;8.40;99.90;;;;;;4991291;28;20474;-63
2022/03/18 08:59:41;;;;;;;20.88;13.18;;;8.50;99.90;;;;;;4992971;28;20462;-65
2022/03/18 09:02:06;;;;;;;17.77;13.07;;;8.60;99.90;;;;;;4990968;28;20054;-66
2022/03/18 09:04:32;;;;;;;21.33;13.98;;;8.70;99.90;;;;;;4992417;28;20055;-64
2022/03/18 09:06:57;;;;;;;19.48;12.52;;;8.80;99.90;;;;;;4991565;28;20124;-64
2022/03/18 09:09:23;;;;;;;21.02;12.63;;;9.00;99.90;;;;;;4992340;28;20399;-67
2022/03/18 09:11:49;;;;;;;17.48;12.73;;;9.10;99.90;;;;;;4990078;28;20050;-64
2022/03/18 09:14:14;;;;;;;22.35;12.32;;;9.10;99.90;;;;;;4988772;28;20046;-63
2022/03/18 09:16:40;;;;;;;20.27;12.68;;;9.20;99.90;;;;;;4982996;28;20051;-64
2022/03/18 09:19:07;;;;;;;20.60;12.73;;;9.30;99.90;;;;;;4985114;28;20196;-62
2022/03/18 09:21:33;;;;;;;20.13;12.05;;;9.40;99.90;;;;;;4964467;28;20047;-65
2022/03/18 09:23:58;;;;;;;19.50;12.02;;;9.60;99.90;;;;;;4983000;28;20505;-64
2022/03/18 09:26:24;;;;;;;17.52;11.63;;;9.70;99.90;;;;;;4987545;28;20046;-64
2022/03/18 09:28:49;;;;;;;17.50;12.02;;;9.80;99.90;;;;;;4974578;28;20138;-65
2022/03/18 09:31:15;;;;;;;15.40;10.93;;;9.90;99.90;;;;;;4977719;28;20074;-64
2022/03/18 09:33:42;;;;;;;16.67;11.80;;;10.00;99.90;;;;;;4978770;28;20568;-64
2022/03/18 09:36:09;;;;;;;17.00;11.90;;;10.10;99.90;;;;;;4983429;28;20141;-64
2022/03/18 09:38:35;;;;;;;20.50;11.68;;;10.30;99.90;;;;;;4988628;28;20069;-65
2022/03/18 09:41:00;;;;;;;21.88;12.27;;;10.40;99.90;;;;;;4991863;28;20360;-64
2022/03/18 09:43:34;;;;;;;17.02;10.90;;;10.60;99.90;;;;;;4993323;28;20090;-65
2022/03/18 09:46:01;;;;;;;20.98;10.82;;;10.70;99.90;;;;;;4996663;28;20130;-64
2022/03/18 09:48:27;;;;;;;18.00;10.65;;;10.80;99.90;;;;;;4996510;28;20089;-66
2022/03/18 09:50:52;;;;;;;19.52;10.60;;;10.90;99.90;;;;;;4997522;28;20085;-66
2022/03/18 09:53:18;;;;;;;20.08;9.32;;;11.10;99.90;;;;;;4997675;28;20061;-65
2022/03/18 09:55:44;;;;;;;16.98;9.85;;;11.10;99.90;;;;;;4995330;28;20096;-64
2022/03/18 09:58:11;;;;;;;16.63;9.77;;;11.20;99.90;;;;;;4986718;28;20049;-65
2022/03/18 10:00:37;;;;;;;16.05;9.70;;;11.30;99.90;;;;;;4986316;28;20050;-65
2022/03/18 10:03:13;;;;;;;16.58;10.55;;;11.50;99.90;;;;;;4987486;28;20100;-64
2022/03/18 10:06:04;;;;;;;17.02;10.43;;;11.60;99.90;;;;;;4988118;28;20054;-65
2022/03/18 10:08:39;;;;;;;18.55;10.50;;;11.70;99.90;;;;;;4992577;28;20057;-64
2022/03/18 10:11:23;;;;;;;16.67;9.88;;;11.80;99.90;;;;;;4996757;28;20062;-64
2022/03/18 10:14:04;;;;;;;15.18;10.07;;;11.80;99.90;;;;;;4988277;28;20042;-66
2022/03/18 10:16:33;;;;;;;16.67;10.00;;;11.90;99.90;;;;;;4985988;28;20054;-66
2022/03/18 10:19:00;;;;;;;15.50;10.57;;;12.10;99.90;;;;;;4977445;28;20054;-65
2022/03/18 10:21:27;;;;;;;15.18;9.70;;;12.20;99.90;;;;;;4964813;28;20065;-66
2022/03/18 10:24:04;;;;;;;15.40;10.60;;;12.30;99.90;;;;;;4984650;28;20054;-66
2022/03/18 10:26:33;;;;;;;16.25;9.63;;;12.40;99.90;;;;;;4960733;28;20094;-67
2022/03/18 10:29:00;;;;;;;16.75;10.05;;;12.30;99.90;;;;;;4983610;28;20398;-66
2022/03/18 10:31:26;;;;;;;18.25;9.70;;;12.30;99.90;;;;;;4985459;28;20046;-66
2022/03/18 10:37:09;;;;;;;17.85;9.15;;;12.50;99.90;;;;;;5011664;28;20057;-66
2022/03/18 10:39:43;;;;;;;14.68;8.80;;;12.60;99.90;;;;;;4995042;28;20057;-65
2022/03/18 10:42:13;;;;;;;15.25;8.63;;;12.70;99.90;;;;;;4994866;28;20153;-65
2022/03/18 10:44:49;;;;;;;13.45;9.02;;;12.80;99.90;;;;;;4989390;28;20054;-64
2022/03/18 10:47:32;;;;;;;12.40;7.97;;;12.90;99.90;;;;;;4981585;28;20039;-64
2022/03/18 10:50:09;;;;;;;12.55;7.97;;;13.00;99.90;;;;;;4984209;28;20050;-66
2022/03/18 10:52:39;;;;;;;14.05;8.85;;;13.10;99.90;;;;;;4994510;28;20050;-65
2022/03/18 10:55:36;;;;;;;17.13;9.40;;;13.30;99.90;;;;;;4993986;28;20129;-64
2022/03/18 10:58:04;;;;;;;10.80;9.05;;;13.30;99.90;;;;;;4995095;28;20050;-66
2022/03/18 11:00:32;;;;;;;12.55;8.27;;;13.30;99.90;;;;;;4996357;28;20046;-67
2022/03/18 11:02:59;;;;;;;14.52;8.32;;;13.50;99.90;;;;;;4996206;28;20372;-65
2022/03/18 11:05:27;;;;;;;10.45;7.93;;;13.50;99.90;;;;;;4996174;28;20046;-65
2022/03/18 11:07:54;;;;;;;14.57;8.38;;;13.50;99.90;;;;;;4994192;28;20536;-66
2022/03/18 11:13:07;;;;;;;12.90;7.55;;;13.50;99.90;;;;;;4994397;28;20394;-66
2022/03/18 11:15:35;;;;;;;13.13;7.22;;;13.40;99.90;;;;;;4976537;28;20403;-66
2022/03/18 11:18:04;;;;;;;12.95;7.45;;;13.40;99.90;;;;;;4974516;28;20121;-66
2022/03/18 11:20:32;;;;;;;14.88;8.40;;;13.50;99.90;;;;;;4983913;28;20042;-65
2022/03/18 11:22:58;;;;;;;14.48;8.18;;;13.60;99.90;;;;;;4986220;28;20490;-66
2022/03/18 11:25:26;;;;;;;13.43;8.20;;;13.70;99.90;;;;;;4983772;28;20384;-67
2022/03/18 11:27:54;;;;;;;14.38;7.85;;;13.80;99.90;;;;;;4983835;28;20042;-66
2022/03/18 11:30:34;;;;;;;14.52;7.78;;;14.00;99.90;;;;;;4988742;28;20070;-66
2022/03/18 11:33:09;;;;;;;13.27;7.82;;;14.10;99.90;;;;;;4985409;28;20121;-66
2022/03/18 11:35:50;;;;;;;12.20;8.10;;;14.20;99.90;;;;;;4987412;28;20054;-65
2022/03/18 11:38:17;;;;;;;9.20;7.45;;;14.30;99.90;;;;;;4984371;28;20055;-64
2022/03/18 11:41:01;;;;;;;14.13;8.10;;;14.30;99.90;;;;;;4994979;28;20043;-65
2022/03/18 11:43:35;;;;;;;9.35;6.75;;;14.40;99.90;;;;;;4992068;28;20553;-66
2022/03/18 11:46:12;;;;;;;10.98;6.60;;;14.50;99.90;;;;;;4994805;28;20050;-64
2022/03/18 11:48:41;;;;;;;11.05;6.45;;;14.50;99.90;;;;;;4992915;28;20061;-64
2022/03/18 11:51:34;;;;;;;13.65;7.10;;;14.60;99.90;;;;;;4991234;28;20054;-64
2022/03/18 11:54:00;;;;;;;13.20;5.90;;;14.80;99.90;;;;;;4993172;28;20058;-65
2022/03/18 11:56:47;;;;;;;11.80;6.43;;;15.00;99.90;;;;;;4994389;28;20526;-66
2022/03/18 11:59:28;;;;;;;12.10;6.15;;;15.10;99.90;;;;;;4982105;28;20416;-65
2022/03/18 12:02:15;;;;;;;10.57;6.00;;;15.10;99.90;;;;;;4987485;28;20057;-64
2022/03/18 12:04:43;;;;;;;9.52;5.90;;;15.30;99.90;;;;;;4984823;28;20046;-66
2022/03/18 12:07:24;;;;;;;11.07;5.40;;;15.50;99.90;;;;;;4988508;28;20054;-65
2022/03/18 12:10:00;;;;;;;6.27;4.27;;;15.70;99.90;;;;;;4993359;28;20050;-64
2022/03/18 12:12:43;;;;;;;8.63;4.57;;;15.80;99.90;;;;;;4994511;28;20288;-66
2022/03/18 12:15:11;;;;;;;6.28;3.70;;;15.80;89.50;;;;;;4992178;28;20433;-66
2022/03/18 12:17:55;;;;;;;12.88;6.22;;;15.60;99.90;;;;;;5010393;28;20184;-65
2022/03/18 12:20:35;;;;;;;11.32;5.93;;;15.50;99.90;;;;;;4992527;28;20058;-64
2022/03/18 12:23:08;;;;;;;10.82;5.30;;;15.30;93.90;;;;;;4993706;28;20390;-65
2022/03/18 12:25:36;;;;;;;8.88;4.78;;;15.20;99.90;;;;;;4992657;28;20058;-65
2022/03/18 12:28:02;;;;;;;7.47;3.50;;;15.10;99.90;;;;;;4992534;28;20054;-65
2022/03/18 12:30:30;;;;;;;8.10;3.15;;;15.00;99.90;;;;;;4992700;28;20134;-66
2022/03/18 12:33:01;;;;;;;8.10;2.85;;;14.90;99.90;;;;;;4992525;28;20062;-64
2022/03/18 12:35:38;;;;;;;11.60;3.78;;;14.90;99.90;;;;;;4987743;28;20093;-64
2022/03/18 12:38:17;;;;;;;9.95;3.90;;;14.90;91.60;;;;;;4992740;28;20062;-65
2022/03/18 12:41:02;;;;;;;10.13;4.22;;;14.80;99.30;;;;;;4990730;28;20471;-65
2022/03/18 12:43:32;;;;;;;10.65;4.97;;;14.80;93.40;;;;;;4984877;28;20062;-64
2022/03/18 12:45:58;;;;;;;13.43;4.22;;;14.80;99.90;;;;;;4983061;28;20098;-64
2022/03/18 12:48:24;;;;;;;11.38;4.65;;;14.90;99.90;;;;;;4993576;28;20050;-65
2022/03/18 12:50:54;;;;;;;10.20;4.70;;;15.10;99.30;;;;;;4992802;28;20054;-64
2022/03/18 12:53:26;;;;;;;9.27;3.60;;;15.30;99.10;;;;;;5008667;28;20061;-65
2022/03/18 12:55:59;;;;;;;9.47;3.20;;;15.40;93.00;;;;;;5007934;28;20138;-64
2022/03/18 12:58:26;;;;;;;7.50;2.50;;;15.60;91.60;;;;;;4983070;28;20290;-65
2022/03/18 13:00:56;;;;;;;8.13;2.78;;;15.60;87.50;;;;;;4981154;28;20082;-66
2022/03/18 13:03:34;;;;;;;7.43;3.47;;;15.60;82.20;;;;;;4982410;28;20125;-64
2022/03/18 13:06:08;;;;;;;8.38;3.30;;;15.40;79.70;;;;;;4989450;28;20097;-65
2022/03/18 13:08:34;;;;;;;7.20;3.53;;;15.20;87.20;;;;;;4988941;28;20129;-66
2022/03/18 13:11:02;;;;;;;10.93;3.95;;;15.00;90.50;;;;;;4994296;28;20132;-66
2022/03/18 13:13:28;;;;;;;7.80;3.78;;;14.90;92.20;;;;;;4988440;28;20540;-66
2022/03/18 13:15:59;;;;;;;8.77;3.60;;;14.90;92.90;;;;;;4974970;28;20121;-67